Time;durP1;ratioP1;P1;durP2;ratioP2;P2;SDS_P1;SDS_P2;PMS_P1;PMS_P2;Temp;Humidity;BMP_temperature;BMP_pressure;BME280_temperature;BME280_humidity;BME280_pressure;Samples;Min_cycle;Max_cycle;Signal;HPM_P1;HPM_P2
2023/02/21 02:17:58;;;;;;;10.20;5.20;;;;;;;9.51;67.18;100565.78;10306704;28;20042;-66
2023/02/21 02:23:26;;;;;;;6.40;5.00;;;;;;;9.49;67.45;100575.69;10311356;28;20053;-65
2023/02/21 02:28:46;;;;;;;7.05;4.95;;;;;;;9.50;67.81;100565.91;10300968;28;20047;-67
2023/02/21 02:34:26;;;;;;;7.10;4.88;;;;;;;9.42;67.84;100555.81;10307273;28;20322;-65
2023/02/21 02:39:50;;;;;;;7.22;4.68;;;;;;;9.40;67.63;100576.34;10308564;28;20131;-67
2023/02/21 02:44:57;;;;;;;8.45;5.97;;;;;;;9.32;67.70;100573.38;10313167;28;20046;-66
2023/02/21 02:50:00;;;;;;;7.93;6.32;;;;;;;9.35;67.81;100568.72;10310271;28;20089;-67
2023/02/21 02:55:19;;;;;;;7.75;5.55;;;;;;;9.32;67.43;100552.13;10302598;28;20060;-67
2023/02/21 03:00:21;;;;;;;8.43;5.30;;;;;;;9.26;68.07;100553.38;10305676;28;20559;-67
2023/02/21 03:05:44;;;;;;;8.40;5.40;;;;;;;9.29;68.11;100560.31;10307182;28;20066;-67
2023/02/21 03:11:08;;;;;;;7.85;5.05;;;;;;;9.33;68.10;100567.94;10310433;28;20188;-67
2023/02/21 03:16:23;;;;;;;7.72;5.10;;;;;;;9.45;67.83;100563.56;10312625;28;20050;-67
2023/02/21 03:21:34;;;;;;;9.35;5.18;;;;;;;9.49;68.14;100559.75;10322722;28;20049;-66
2023/02/21 03:26:39;;;;;;;8.63;5.65;;;;;;;9.47;68.07;100547.53;10313674;28;20049;-66
2023/02/21 03:31:47;;;;;;;7.88;6.30;;;;;;;9.46;67.57;100538.72;10306998;28;20052;-66
2023/02/21 03:36:48;;;;;;;9.07;5.78;;;;;;;9.50;68.37;100548.19;10310407;28;20241;-67
2023/02/21 03:41:49;;;;;;;9.52;6.03;;;;;;;9.52;68.35;100553.38;10304790;28;20080;-67
2023/02/21 03:46:51;;;;;;;11.05;6.07;;;;;;;9.35;68.24;100535.97;10304041;28;20050;-66
2023/02/21 03:51:52;;;;;;;10.43;5.78;;;;;;;9.46;67.81;100545.84;10306831;28;20061;-66
2023/02/21 03:56:56;;;;;;;8.07;5.95;;;;;;;9.36;68.40;100549.13;10306031;28;20156;-68
2023/02/21 04:01:57;;;;;;;10.32;6.70;;;;;;;9.35;68.26;100549.25;10306180;28;20469;-66
2023/02/21 04:06:58;;;;;;;7.55;5.57;;;;;;;9.04;68.22;100503.59;10312502;28;20050;-66
2023/02/21 04:12:00;;;;;;;8.32;6.03;;;;;;;9.23;68.79;100547.44;10312756;28;20587;-66
2023/02/21 04:17:01;;;;;;;10.20;6.45;;;;;;;9.19;69.12;100534.38;10315323;28;20060;-66
2023/02/21 04:22:03;;;;;;;10.30;6.18;;;;;;;9.28;68.73;100540.03;10317668;28;20441;-66
2023/02/21 04:27:04;;;;;;;8.18;6.47;;;;;;;9.03;68.33;100507.22;10311032;28;20061;-66
2023/02/21 04:32:09;;;;;;;11.35;6.30;;;;;;;9.33;68.51;100554.66;10313383;28;20050;-66
2023/02/21 04:37:10;;;;;;;8.27;6.33;;;;;;;9.23;68.49;100550.13;10311995;28;20515;-66
2023/02/21 04:42:12;;;;;;;10.43;6.75;;;;;;;9.11;69.08;100550.03;10314977;28;20161;-65
2023/02/21 04:47:13;;;;;;;10.93;6.68;;;;;;;8.96;69.32;100551.06;10313237;28;20369;-67
2023/02/21 04:52:14;;;;;;;9.73;6.85;;;;;;;8.92;69.21;100555.75;10315109;28;20062;-68
2023/02/21 04:57:16;;;;;;;9.20;6.95;;;;;;;8.89;69.38;100552.44;10311856;28;20328;-65
2023/02/21 05:02:17;;;;;;;12.10;6.82;;;;;;;8.79;69.93;100542.47;10319977;28;20047;-67
2023/02/21 05:07:19;;;;;;;9.73;7.20;;;;;;;8.78;70.22;100540.78;10305242;28;20057;-66
2023/02/21 05:12:20;;;;;;;9.65;7.22;;;;;;;8.72;70.33;100535.91;10310083;28;20058;-66
2023/02/21 05:17:21;;;;;;;11.00;7.82;;;;;;;8.56;70.92;100519.31;10312515;28;20132;-67
2023/02/21 05:22:23;;;;;;;8.13;6.78;;;;;;;8.56;70.72;100511.34;10316532;28;20061;-66
2023/02/21 05:27:24;;;;;;;11.20;8.35;;;;;;;8.63;71.27;100525.88;10310899;28;20140;-67
2023/02/21 05:32:28;;;;;;;9.48;7.95;;;;;;;8.63;70.91;100533.84;10310240;28;20663;-66
2023/02/21 05:37:29;;;;;;;8.65;7.45;;;;;;;8.51;71.31;100524.06;10311851;28;20042;-65
2023/02/21 05:42:32;;;;;;;8.73;7.90;;;;;;;8.54;71.91;100535.34;10324420;28;20050;-67
2023/02/21 05:47:34;;;;;;;10.30;8.10;;;;;;;8.46;72.13;100543.78;10311431;28;20488;-65
2023/02/21 05:52:35;;;;;;;9.70;7.90;;;;;;;8.35;72.08;100525.06;10303776;28;20201;-65
2023/02/21 05:57:38;;;;;;;11.00;9.60;;;;;;;8.41;72.09;100529.97;10313567;28;20061;-67
2023/02/21 06:02:39;;;;;;;9.75;8.68;;;;;;;8.47;72.29;100536.69;10305812;28;20283;-68
2023/02/21 06:07:41;;;;;;;14.55;9.23;;;;;;;8.57;71.71;100551.06;10319132;28;20570;-71
2023/02/21 06:12:42;;;;;;;11.43;8.75;;;;;;;8.46;72.30;100541.13;10325714;28;20068;-69
2023/02/21 06:17:44;;;;;;;14.88;9.85;;;;;;;8.44;71.98;100535.09;10311582;28;20050;-69
2023/02/21 06:22:46;;;;;;;14.15;10.00;;;;;;;8.62;71.82;100548.09;10318290;28;20061;-68
2023/02/21 06:27:48;;;;;;;10.05;8.00;;;;;;;8.65;71.40;100543.41;10329313;28;20153;-67
2023/02/21 06:32:49;;;;;;;11.13;8.50;;;;;;;8.74;70.92;100552.56;10313404;28;20222;-68
2023/02/21 06:37:51;;;;;;;9.48;8.20;;;;;;;8.64;71.02;100530.25;10319200;28;20049;-70
2023/02/21 06:42:52;;;;;;;13.35;9.27;;;;;;;8.66;71.03;100533.63;10316901;28;20476;-68
2023/02/21 06:47:53;;;;;;;12.32;8.70;;;;;;;8.60;70.99;100534.06;10308842;28;20068;-66
2023/02/21 06:53:02;;;;;;;13.15;9.38;;;;;;;8.68;71.28;100547.66;10361954;28;20397;-62
2023/02/21 06:58:04;;;;;;;12.68;9.05;;;;;;;8.65;70.92;100538.09;10360388;28;20580;-62
2023/02/21 07:03:05;;;;;;;12.88;9.20;;;;;;;8.50;71.35;100533.84;10371764;28;20057;-61
2023/02/21 07:08:06;;;;;;;13.77;9.10;;;;;;;8.64;70.90;100551.47;10374299;28;20056;-61
2023/02/21 07:13:08;;;;;;;12.65;9.25;;;;;;;8.62;70.98;100556.03;10374332;28;20049;-62
2023/02/21 07:18:10;;;;;;;13.70;9.20;;;;;;;8.66;71.09;100555.72;10352173;28;20060;-61
2023/02/21 07:23:11;;;;;;;10.77;8.95;;;;;;;8.69;70.68;100562.63;10360736;28;20994;-61
2023/02/21 07:28:13;;;;;;;11.40;9.38;;;;;;;8.62;71.13;100556.03;10342493;28;20545;-60
2023/02/21 07:33:14;;;;;;;12.35;9.07;;;;;;;8.65;71.27;100553.19;10359387;28;20061;-59
2023/02/21 07:38:27;;;;;;;16.30;9.48;;;;;;;8.62;70.81;100554.22;10376177;28;20061;-59
2023/02/21 07:43:30;;;;;;;13.05;9.98;;;;;;;8.69;71.10;100559.97;10373186;28;20673;-59
2023/02/21 07:48:32;;;;;;;11.98;10.13;;;;;;;8.65;71.04;100531.94;10371173;28;20076;-60
2023/02/21 07:53:34;;;;;;;13.70;8.93;;;;;;;8.90;70.68;100547.03;10374020;28;20144;-59
2023/02/21 07:58:36;;;;;;;16.33;10.63;;;;;;;8.88;70.68;100537.50;10374350;28;20314;-59
2023/02/21 08:03:39;;;;;;;13.93;10.05;;;;;;;8.95;70.10;100539.59;10349217;28;20524;-61
2023/02/21 08:08:41;;;;;;;13.35;9.40;;;;;;;9.02;70.25;100550.63;10351954;28;20196;-60
2023/02/21 08:13:42;;;;;;;12.18;8.93;;;;;;;8.98;70.49;100550.00;10344856;28;20170;-60
2023/02/21 08:18:46;;;;;;;13.40;9.90;;;;;;;8.93;70.82;100548.63;10339540;28;20053;-60
2023/02/21 08:23:53;;;;;;;13.27;7.73;;;;;;;8.84;71.28;100553.63;10345867;28;20049;-61
2023/02/21 08:28:54;;;;;;;12.50;10.40;;;;;;;8.82;71.16;100558.16;10331900;28;20060;-60
2023/02/21 08:33:56;;;;;;;14.40;10.05;;;;;;;8.90;71.28;100552.34;10344083;28;20139;-61
2023/02/21 08:38:58;;;;;;;13.98;10.75;;;;;;;8.96;71.24;100549.28;10347366;28;20053;-62
2023/02/21 08:44:00;;;;;;;14.10;10.32;;;;;;;9.01;70.85;100554.28;10351513;28;20056;-62
2023/02/21 08:49:02;;;;;;;13.80;11.23;;;;;;;9.06;70.79;100552.13;10348694;28;20650;-62
2023/02/21 08:54:04;;;;;;;13.50;10.20;;;;;;;9.20;70.81;100538.75;10324687;28;20056;-61
2023/02/21 08:59:05;;;;;;;14.35;10.45;;;;;;;9.75;68.89;100545.56;10356285;28;20049;-62
2023/02/21 09:04:07;;;;;;;18.08;11.43;;;;;;;10.14;67.20;100555.06;10346623;28;20058;-63
2023/02/21 09:09:08;;;;;;;14.43;11.18;;;;;;;10.22;66.51;100557.16;10345271;28;20045;-62
2023/02/21 09:14:09;;;;;;;12.73;10.15;;;;;;;10.31;66.08;100556.47;10344854;28;20049;-62
2023/02/21 09:19:12;;;;;;;13.40;10.65;;;;;;;10.47;65.28;100564.22;10338169;28;20060;-61
2023/02/21 09:24:14;;;;;;;10.90;9.68;;;;;;;10.52;65.08;100553.22;10341948;28;20050;-61
2023/02/21 09:29:15;;;;;;;16.73;10.60;;;;;;;10.68;64.79;100563.56;10345655;28;20054;-62
2023/02/21 09:34:17;;;;;;;16.92;11.52;;;;;;;10.73;64.21;100562.25;10339765;28;20353;-62
2023/02/21 09:39:18;;;;;;;12.55;10.00;;;;;;;10.73;65.77;100561.38;10344286;28;20060;-55
2023/02/21 09:44:24;;;;;;;12.88;10.70;;;;;;;10.90;65.09;100563.59;10347138;28;20524;-61
2023/02/21 09:49:32;;;;;;;12.85;11.20;;;;;;;10.98;63.76;100559.50;10343655;28;20053;-60
2023/02/21 09:54:37;;;;;;;15.40;11.35;;;;;;;10.95;63.58;100564.09;10342793;28;20049;-60
2023/02/21 09:59:39;;;;;;;11.60;9.93;;;;;;;11.25;63.07;100546.69;10339148;28;20057;-60
2023/02/21 10:05:16;;;;;;;12.98;10.13;;;;;;;11.54;62.30;100554.19;10345694;28;20049;-60
2023/02/21 10:11:07;;;;;;;13.18;10.63;;;;;;;11.75;60.67;100550.78;10340570;28;20494;-59
2023/02/21 10:16:18;;;;;;;14.55;11.52;;;;;;;12.10;59.67;100552.41;10333081;28;20526;-61
2023/02/21 10:21:25;;;;;;;14.27;10.88;;;;;;;12.71;57.21;100552.63;10342440;28;20092;-60
2023/02/21 10:26:28;;;;;;;15.05;10.50;;;;;;;13.21;56.33;100548.41;10341149;28;20081;-59
2023/02/21 10:31:34;;;;;;;14.15;10.07;;;;;;;13.79;54.91;100542.47;10336836;28;20827;-61
2023/02/21 10:36:35;;;;;;;11.52;9.52;;;;;;;15.04;51.42;100552.47;10341877;28;20176;-59
2023/02/21 10:41:40;;;;;;;10.65;9.05;;;;;;;15.27;50.68;100547.63;10341209;28;20058;-60
2023/02/21 10:46:46;;;;;;;12.25;9.63;;;;;;;15.43;49.04;100538.09;10337893;28;20060;-59
2023/02/21 10:52:02;;;;;;;12.23;10.43;;;;;;;16.20;47.43;100552.09;10342792;28;20058;-59
2023/02/21 10:57:15;;;;;;;11.23;9.20;;;;;;;17.10;45.35;100536.69;10343005;28;20045;-58
2023/02/21 11:02:28;;;;;;;9.50;8.50;;;;;;;19.23;41.28;100529.97;10336173;28;20068;-59
2023/02/21 11:07:31;;;;;;;11.20;9.80;;;;;;;18.85;40.56;100528.81;10343316;28;20135;-59
2023/02/21 11:12:32;;;;;;;9.82;8.80;;;;;;;18.34;41.51;100526.31;10340215;28;20049;-58
2023/02/21 11:17:34;;;;;;;10.15;8.70;;;;;;;18.49;42.06;100518.41;10340101;28;20045;-58
2023/02/21 11:22:40;;;;;;;9.18;7.75;;;;;;;19.98;40.00;100510.72;10338848;28;20061;-59
2023/02/21 11:27:42;;;;;;;10.57;8.45;;;;;;;19.51;39.60;100507.06;10338498;28;20042;-55
2023/02/21 11:32:55;;;;;;;11.20;8.80;;;;;;;19.43;39.28;100495.28;10339357;28;20069;-58
2023/02/21 11:38:00;;;;;;;9.65;8.70;;;;;;;21.43;36.07;100480.78;10321214;28;20057;-58
2023/02/21 11:43:17;;;;;;;9.35;8.45;;;;;;;24.92;30.49;100478.97;10348898;28;20049;-58
2023/02/21 11:48:26;;;;;;;8.18;7.35;;;;;;;27.15;26.60;100468.06;10348711;28;21417;-56
2023/02/21 11:53:33;;;;;;;8.02;7.03;;;;;;;29.43;24.14;100459.81;10347235;28;20041;-56
2023/02/21 11:58:51;;;;;;;8.98;6.95;;;;;;;30.52;22.65;100446.09;10347934;28;20076;-56
2023/02/21 12:04:10;;;;;;;9.68;7.50;;;;;;;31.27;21.37;100441.09;10341399;28;20053;-55
2023/02/21 12:09:23;;;;;;;8.80;7.45;;;;;;;31.73;20.59;100429.78;10344122;28;20062;-57
2023/02/21 12:14:28;;;;;;;8.93;6.95;;;;;;;32.28;20.32;100414.03;10344182;28;20351;-55
2023/02/21 12:19:52;;;;;;;7.63;6.93;;;;;;;32.70;19.87;100404.97;10337888;28;20487;-56
2023/02/21 12:25:15;;;;;;;7.57;6.85;;;;;;;33.30;18.76;100388.13;10343924;28;20044;-57
2023/02/21 12:30:35;;;;;;;11.90;7.28;;;;;;;33.91;18.51;100379.09;10345706;28;20057;-57
2023/02/21 12:35:53;;;;;;;10.70;9.70;;;;;;;34.55;18.13;100384.28;10343349;28;21138;-57
2023/02/21 12:41:13;;;;;;;7.05;5.95;;;;;;;34.83;17.70;100375.38;10347123;28;20300;-57
2023/02/21 12:46:39;;;;;;;6.47;5.75;;;;;;;35.31;16.75;100361.03;10341118;28;21164;-57
2023/02/21 12:52:00;;;;;;;8.20;6.75;;;;;;;35.30;17.03;100355.78;10341997;28;20152;-57
2023/02/21 12:57:09;;;;;;;7.00;6.07;;;;;;;35.74;16.99;100352.13;10343682;28;20061;-57
2023/02/21 13:02:34;;;;;;;6.63;5.80;;;;;;;36.18;16.79;100340.13;10345137;28;20184;-57
2023/02/21 13:07:43;;;;;;;7.25;5.68;;;;;;;36.19;16.22;100324.31;10338825;28;20050;-58
2023/02/21 13:13:02;;;;;;;7.77;5.23;;;;;;;36.56;16.43;100318.09;10346418;28;20100;-57
2023/02/21 13:18:07;;;;;;;6.15;5.55;;;;;;;36.69;15.85;100319.28;10334257;28;20833;-58
2023/02/21 13:28:53;;;;;;;6.40;4.72;;;;;;;37.13;16.04;100300.69;10340879;28;20060;-58
2023/02/21 13:34:07;;;;;;;5.80;5.13;;;;;;;37.38;15.55;100290.34;10344309;28;20055;-58
2023/02/21 13:39:16;;;;;;;7.40;4.82;;;;;;;38.03;15.05;100290.31;10354291;28;20053;-58
2023/02/21 13:44:29;;;;;;;7.00;4.95;;;;;;;37.70;15.33;100264.53;10346264;28;20053;-59
2023/02/21 13:49:48;;;;;;;5.82;5.30;;;;;;;38.27;15.16;100255.97;10346322;28;20071;-59
2023/02/21 13:55:08;;;;;;;;;;;;;;;37.88;14.66;100243.41;10341385;28;20865;-58
2023/02/21 14:00:28;;;;;;;4.93;4.40;;;;;;;37.47;15.20;100247.72;10357614;28;19935;-56
2023/02/21 14:05:51;;;;;;;6.03;5.15;;;;;;;37.58;14.78;100242.81;10343303;28;20045;-57
2023/02/21 14:10:57;;;;;;;5.53;5.03;;;;;;;37.55;15.00;100223.13;10344264;28;20120;-59
2023/02/21 14:16:07;;;;;;;6.47;5.07;;;;;;;37.67;14.93;100223.50;10340253;28;20662;-58
2023/02/21 14:21:32;;;;;;;7.45;4.22;;;;;;;38.03;14.93;100220.84;10341517;28;20060;-58
2023/02/21 14:26:56;;;;;;;5.25;4.75;;;;;;;37.71;14.87;100213.44;10342759;28;21057;-61
2023/02/21 14:32:01;;;;;;;4.47;4.03;;;;;;;37.70;14.98;100213.72;10339470;28;20049;-59
2023/02/21 14:37:26;;;;;;;4.90;3.75;;;;;;;37.08;15.27;100209.22;10315019;28;20124;-59
2023/02/21 14:42:51;;;;;;;5.25;4.57;;;;;;;36.98;15.27;100199.94;10310483;28;20079;-58
2023/02/21 14:48:16;;;;;;;5.10;3.80;;;;;;;37.21;15.72;100191.78;10330336;28;20133;-59
2023/02/21 14:53:39;;;;;;;3.80;3.25;;;;;;;35.77;16.49;100192.91;10234009;28;20050;-62
2023/02/21 14:59:14;;;;;;;3.70;3.28;;;;;;;35.41;16.74;100185.81;10331884;28;20037;-59
2023/02/21 15:04:36;;;;;;;3.88;3.08;;;;;;;35.79;16.26;100174.91;10337033;28;20059;-59
2023/02/21 15:09:37;;;;;;;4.15;3.83;;;;;;;34.72;16.95;100171.94;10337197;28;20057;-53
2023/02/21 15:14:47;;;;;;;4.10;3.80;;;;;;;33.98;18.27;100171.75;10346451;28;20139;-59
2023/02/21 15:20:24;;;;;;;5.82;4.43;;;;;;;30.59;21.57;100161.13;10345543;28;20046;-56
2023/02/21 15:25:26;;;;;;;4.80;4.30;;;;;;;27.31;25.69;100160.56;10314744;28;20068;-56
2023/02/21 15:30:40;;;;;;;6.18;4.80;;;;;;;25.44;27.79;100153.97;10344143;28;20671;-55
2023/02/21 15:36:04;;;;;;;5.63;5.00;;;;;;;24.09;30.12;100163.97;10347290;28;20597;-55
2023/02/21 15:41:12;;;;;;;7.10;5.35;;;;;;;23.19;31.99;100142.81;10341061;28;20058;-57
2023/02/21 15:46:21;;;;;;;6.65;5.30;;;;;;;22.47;33.09;100146.00;10344129;28;20591;-57
2023/02/21 15:51:23;;;;;;;8.32;7.00;;;;;;;21.96;33.90;100149.94;10325816;28;20108;-56
2023/02/21 15:56:27;;;;;;;7.53;6.57;;;;;;;21.36;35.18;100154.97;10333457;28;20406;-56
2023/02/21 16:01:28;;;;;;;10.23;7.05;;;;;;;20.98;36.25;100152.56;10339334;28;20092;-56
2023/02/21 16:06:33;;;;;;;6.28;5.68;;;;;;;20.63;37.05;100149.72;10339454;28;20468;-55
2023/02/21 16:12:00;;;;;;;7.55;6.70;;;;;;;20.26;37.47;100143.47;10348958;28;20046;-54
2023/02/21 16:17:12;;;;;;;7.60;6.90;;;;;;;19.87;38.44;100155.44;10338117;28;20053;-55
2023/02/21 16:22:17;;;;;;;9.02;6.97;;;;;;;19.58;39.15;100146.28;10335241;28;20053;-56
2023/02/21 16:27:18;;;;;;;10.30;7.80;;;;;;;19.33;39.78;100143.00;10318823;28;20730;-55
2023/02/21 16:32:20;;;;;;;7.55;6.38;;;;;;;19.08;39.75;100149.44;10337204;28;21404;-55
2023/02/21 16:37:22;;;;;;;9.90;8.23;;;;;;;18.80;40.70;100138.34;10338005;28;20053;-56
2023/02/21 16:42:24;;;;;;;8.65;6.43;;;;;;;18.55;41.81;100135.84;10336448;28;20482;-56
2023/02/21 16:47:25;;;;;;;8.77;6.43;;;;;;;18.33;42.49;100142.88;10332955;28;20819;-56
2023/02/21 16:52:27;;;;;;;8.98;7.13;;;;;;;18.08;43.23;100147.53;10336135;28;20046;-56
2023/02/21 16:57:29;;;;;;;9.27;6.60;;;;;;;17.78;43.70;100132.97;10335183;28;20053;-57
2023/02/21 17:02:30;;;;;;;8.65;7.82;;;;;;;17.56;44.89;100139.94;10338447;28;20809;-59
2023/02/21 17:07:33;;;;;;;8.85;7.97;;;;;;;17.38;45.24;100143.66;10338038;28;20417;-59
2023/02/21 17:12:35;;;;;;;8.70;7.80;;;;;;;17.01;45.94;100111.91;10327078;28;20052;-60
2023/02/21 17:17:37;;;;;;;9.45;7.15;;;;;;;16.96;46.35;100145.56;10327242;28;20808;-60
2023/02/21 17:22:38;;;;;;;9.73;8.13;;;;;;;16.76;47.47;100152.22;10340526;28;20067;-60
2023/02/21 17:27:40;;;;;;;11.10;8.82;;;;;;;16.66;47.57;100148.84;10337336;28;20049;-60
2023/02/21 17:32:45;;;;;;;12.52;9.40;;;;;;;16.39;48.62;100148.09;10288862;28;20049;-60
2023/02/21 17:37:48;;;;;;;10.32;8.52;;;;;;;16.33;48.78;100165.72;10317926;28;20053;-71
2023/02/21 17:42:50;;;;;;;11.52;8.40;;;;;;;16.19;49.08;100161.81;10320316;28;20172;-63
2023/02/21 17:47:54;;;;;;;9.68;8.35;;;;;;;16.03;49.65;100170.66;10345617;28;20751;-61
2023/02/21 17:52:58;;;;;;;9.32;8.07;;;;;;;15.86;50.53;100169.72;10341121;28;20602;-63
2023/02/21 17:58:00;;;;;;;10.18;9.02;;;;;;;15.72;50.93;100178.34;10342016;28;20049;-63
2023/02/21 18:03:04;;;;;;;12.05;8.95;;;;;;;15.58;51.26;100171.72;10342538;28;20093;-63
2023/02/21 18:08:06;;;;;;;12.48;9.88;;;;;;;15.45;51.99;100174.81;10336467;28;20053;-64
2023/02/21 18:13:07;;;;;;;16.60;11.30;;;;;;;15.27;52.26;100166.00;10340758;28;20045;-62
2023/02/21 18:18:09;;;;;;;15.10;10.50;;;;;;;15.10;52.98;100156.97;10330815;28;20201;-63
2023/02/21 18:23:11;;;;;;;19.08;13.68;;;;;;;15.05;53.40;100176.19;10338603;28;20057;-60
2023/02/21 18:28:12;;;;;;;13.50;12.07;;;;;;;14.94;53.60;100179.13;10339691;28;20049;-62
2023/02/21 18:33:14;;;;;;;11.45;9.45;;;;;;;14.72;54.06;100164.34;10323688;28;20786;-63
2023/02/21 18:38:15;;;;;;;12.80;10.27;;;;;;;14.50;54.03;100150.34;10342759;28;20323;-65
2023/02/21 18:43:23;;;;;;;13.55;10.70;;;;;;;14.61;54.39;100173.44;10350401;28;20061;-62
2023/02/21 18:48:25;;;;;;;14.32;12.77;;;;;;;14.51;55.43;100186.84;10339413;28;20062;-61
2023/02/21 18:53:27;;;;;;;13.13;11.10;;;;;;;14.45;55.34;100184.78;10331772;28;20041;-63
2023/02/21 18:58:29;;;;;;;16.35;13.63;;;;;;;14.32;55.64;100177.09;10323392;28;20061;-63
2023/02/21 19:03:31;;;;;;;16.95;12.40;;;;;;;14.19;56.21;100171.28;10317068;28;20545;-62
2023/02/21 19:08:33;;;;;;;15.25;12.75;;;;;;;13.93;56.06;100154.06;10335962;28;20168;-62
2023/02/21 19:13:35;;;;;;;15.93;13.65;;;;;;;13.88;57.08;100155.50;10338334;28;22694;-64
2023/02/21 19:18:36;;;;;;;16.13;13.68;;;;;;;13.92;57.32;100172.94;10348486;28;20388;-63
2023/02/21 19:23:39;;;;;;;17.60;12.98;;;;;;;13.79;57.70;100167.91;10337659;28;20133;-62
2023/02/21 19:28:41;;;;;;;20.58;14.73;;;;;;;13.58;58.10;100155.59;10333825;28;20084;-63
2023/02/21 19:33:43;;;;;;;14.32;12.65;;;;;;;13.58;58.29;100163.59;10337343;28;20061;-65
2023/02/21 19:38:44;;;;;;;15.65;12.73;;;;;;;13.51;58.59;100175.91;10334990;28;20168;-64
2023/02/21 19:43:46;;;;;;;17.45;12.00;;;;;;;13.44;59.24;100169.44;10333774;28;20063;-63
2023/02/21 19:48:48;;;;;;;15.77;11.55;;;;;;;13.22;59.37;100144.66;10336115;28;20049;-62
2023/02/21 19:53:50;;;;;;;12.75;11.05;;;;;;;13.22;59.30;100165.22;10334445;28;20065;-63
2023/02/21 19:58:52;;;;;;;14.85;11.63;;;;;;;13.23;59.44;100166.91;10331273;28;20061;-63
2023/02/21 20:03:54;;;;;;;13.32;9.90;;;;;;;13.14;59.92;100165.09;10353258;28;20372;-64
2023/02/21 20:08:56;;;;;;;13.43;12.00;;;;;;;13.04;60.49;100173.94;10342666;28;20065;-63
2023/02/21 20:13:58;;;;;;;14.55;11.73;;;;;;;13.01;60.69;100174.22;10345879;28;20582;-64
2023/02/21 20:19:00;;;;;;;13.85;11.57;;;;;;;12.88;60.83;100158.50;10327870;28;20147;-63
2023/02/21 20:24:05;;;;;;;14.77;11.68;;;;;;;12.84;61.52;100172.28;10342186;28;20537;-64
2023/02/21 20:29:07;;;;;;;13.13;11.82;;;;;;;12.81;62.00;100169.88;10333413;28;20705;-63
2023/02/21 20:34:08;;;;;;;12.35;10.23;;;;;;;12.74;62.30;100177.59;10341041;28;20224;-66
2023/02/21 20:39:29;;;;;;;12.57;10.98;;;;;;;12.61;63.25;100156.50;10344544;28;20053;-62
2023/02/21 20:44:34;;;;;;;12.02;10.63;;;;;;;12.57;64.15;100159.59;10324160;28;20138;-72
2023/02/21 20:49:36;;;;;;;13.50;11.57;;;;;;;12.53;64.26;100165.19;10323587;28;20698;-63
2023/02/21 20:54:37;;;;;;;14.43;11.57;;;;;;;12.47;65.09;100175.59;10348867;28;20837;-64
2023/02/21 20:59:40;;;;;;;15.65;13.25;;;;;;;12.34;65.19;100149.16;10357878;28;20049;-63
2023/02/21 21:04:42;;;;;;;15.88;12.05;;;;;;;12.34;65.26;100174.03;10336704;28;20061;-65
2023/02/21 21:09:44;;;;;;;14.20;12.70;;;;;;;12.23;65.61;100166.13;10329696;28;20058;-63
2023/02/21 21:14:48;;;;;;;17.65;12.93;;;;;;;12.26;65.44;100179.19;10347919;28;20062;-47
2023/02/21 21:19:52;;;;;;;13.32;12.02;;;;;;;12.20;65.64;100169.94;10333239;28;20053;-61
2023/02/21 21:24:54;;;;;;;12.85;11.27;;;;;;;12.09;65.74;100171.84;10326932;28;20049;-60
2023/02/21 21:29:55;;;;;;;11.70;10.57;;;;;;;11.96;66.37;100170.25;10323160;28;20162;-60
2023/02/21 21:34:58;;;;;;;12.00;10.82;;;;;;;11.87;67.04;100173.69;10333976;28;20057;-59
2023/02/21 21:40:15;;;;;;;11.95;10.73;;;;;;;11.79;67.27;100165.53;10331962;28;20050;-59
2023/02/21 21:45:23;;;;;;;12.30;11.00;;;;;;;11.70;67.88;100166.31;10326197;28;20140;-59
2023/02/21 21:50:26;;;;;;;11.70;10.10;;;;;;;11.62;68.66;100162.50;10333828;28;20049;-63
2023/02/21 21:55:28;;;;;;;12.52;10.70;;;;;;;11.56;69.17;100164.84;10335000;28;20057;-60
2023/02/21 22:00:40;;;;;;;13.02;10.10;;;;;;;11.52;69.37;100153.59;10332120;28;20099;-64
2023/02/21 22:05:42;;;;;;;11.60;10.43;;;;;;;11.22;69.69;100123.28;10362764;28;20849;-60
2023/02/21 22:10:44;;;;;;;11.50;10.30;;;;;;;11.40;69.63;100160.00;10362656;28;20132;-60
2023/02/21 22:15:46;;;;;;;11.73;10.52;;;;;;;11.31;69.60;100142.97;10371999;28;20049;-60
2023/02/21 22:20:49;;;;;;;12.32;10.98;;;;;;;11.29;69.72;100153.75;10358249;28;20136;-59
2023/02/21 22:25:51;;;;;;;11.27;10.10;;;;;;;11.19;70.39;100152.00;10345194;28;20654;-60
2023/02/21 22:30:52;;;;;;;11.38;10.27;;;;;;;11.12;70.81;100149.00;10369896;28;20204;-60
2023/02/21 22:35:54;;;;;;;10.80;9.70;;;;;;;11.11;70.99;100144.66;10361636;28;20053;-60
2023/02/21 22:40:58;;;;;;;12.13;9.90;;;;;;;11.00;71.13;100137.56;10354468;28;20124;-63
2023/02/21 22:46:00;;;;;;;12.80;10.35;;;;;;;10.98;71.35;100133.34;10364771;28;20049;-61
2023/02/21 22:51:02;;;;;;;11.05;9.70;;;;;;;10.95;71.04;100132.63;10361561;28;20876;-59
2023/02/21 22:56:08;;;;;;;11.45;10.25;;;;;;;10.83;71.44;100122.16;10359293;28;20084;-61
2023/02/21 23:01:11;;;;;;;10.05;9.05;;;;;;;10.82;71.49;100134.63;10360324;28;20053;-59
2023/02/21 23:06:13;;;;;;;10.82;9.65;;;;;;;10.74;71.76;100131.75;10351760;28;20081;-60
2023/02/21 23:11:17;;;;;;;10.52;9.38;;;;;;;10.73;71.86;100132.72;10363946;28;20132;-60
2023/02/21 23:16:22;;;;;;;11.57;9.77;;;;;;;10.68;72.32;100133.13;10355241;28;20517;-60
2023/02/21 23:21:24;;;;;;;;;;;;;;;10.61;72.61;100130.13;10361006;28;20795;-62
2023/02/21 23:26:26;;;;;;;12.43;10.13;;;;;;;10.50;72.83;100122.16;10364539;28;19920;-59
2023/02/21 23:31:27;;;;;;;10.98;9.98;;;;;;;10.44;72.97;100120.84;10366916;28;20612;-59
2023/02/21 23:36:30;;;;;;;12.25;9.93;;;;;;;10.37;73.01;100110.84;10370673;28;20502;-60
2023/02/21 23:41:33;;;;;;;12.13;9.98;;;;;;;10.26;73.55;100109.88;10368363;28;20156;-60
2023/02/21 23:46:38;;;;;;;10.68;9.55;;;;;;;10.29;73.56;100122.06;10369534;28;20061;-61
2023/02/21 23:51:42;;;;;;;14.02;9.55;;;;;;;10.26;73.74;100117.84;10355398;28;20053;-59
2023/02/21 23:56:46;;;;;;;11.00;9.45;;;;;;;10.16;74.07;100116.91;10367493;28;20739;-61
